createdAt,value
2023-03-27T00:01:03.040Z,7.95
2023-03-27T00:03:30.447Z,7.95
2023-03-27T00:06:00.884Z,7.92
2023-03-27T00:08:28.673Z,7.93
2023-03-27T00:10:55.804Z,7.91
2023-03-27T00:13:22.637Z,7.90
2023-03-27T00:15:49.586Z,7.89
2023-03-27T00:18:17.338Z,7.88
2023-03-27T00:20:44.204Z,7.85
2023-03-27T00:23:10.819Z,7.83
2023-03-27T00:25:37.486Z,7.83
2023-03-27T00:28:04.191Z,7.84
2023-03-27T00:30:31.624Z,7.84
2023-03-27T00:32:58.928Z,7.82
2023-03-27T00:35:28.332Z,7.82
2023-03-27T00:37:55.803Z,7.82
2023-03-27T00:40:22.524Z,7.81
2023-03-27T00:42:51.148Z,7.81
2023-03-27T00:45:23.527Z,7.78
2023-03-27T00:47:54.919Z,7.80
2023-03-27T00:50:26.328Z,7.79
2023-03-27T00:52:58.408Z,7.80
2023-03-27T00:55:31.418Z,7.77
2023-03-27T00:58:03.596Z,7.79
2023-03-27T01:00:32.576Z,7.81
2023-03-27T01:03:03.890Z,7.82
2023-03-27T01:05:31.276Z,7.83
2023-03-27T01:08:01.267Z,7.84
2023-03-27T01:10:42.847Z,7.85
2023-03-27T01:13:45.454Z,7.80
2023-03-27T01:16:41.800Z,7.83
2023-03-27T01:19:33.119Z,7.85
2023-03-27T01:22:22.971Z,7.87
2023-03-27T01:25:14.536Z,7.88
2023-03-27T01:27:50.080Z,7.88
2023-03-27T01:30:34.519Z,7.89
2023-03-27T01:33:31.737Z,7.89
2023-03-27T01:36:20.637Z,7.91
2023-03-27T01:39:13.219Z,7.90
2023-03-27T01:41:52.104Z,7.91
2023-03-27T01:44:36.495Z,7.92
2023-03-27T01:47:25.029Z,7.91
2023-03-27T01:50:14.897Z,7.90
2023-03-27T01:52:45.288Z,7.87
2023-03-27T01:55:18.822Z,7.83
2023-03-27T01:57:53.525Z,7.81
2023-03-27T02:00:23.642Z,7.72
2023-03-27T02:02:56.210Z,7.71
2023-03-27T02:05:33.280Z,7.68
2023-03-27T02:08:10.204Z,7.63
2023-03-27T02:10:41.544Z,7.60
2023-03-27T02:13:17.394Z,7.57
2023-03-27T02:15:47.091Z,7.53
2023-03-27T02:18:19.318Z,7.50
2023-03-27T02:20:46.241Z,7.43
2023-03-27T02:23:12.920Z,7.37
2023-03-27T02:25:42.057Z,7.32
2023-03-27T02:28:23.886Z,7.29
2023-03-27T02:31:32.522Z,7.18
2023-03-27T02:34:27.055Z,7.21
2023-03-27T02:37:20.068Z,7.16
2023-03-27T02:40:48.867Z,7.14
2023-03-27T02:43:56.190Z,7.15
2023-03-27T02:46:56.366Z,7.13
2023-03-27T02:49:32.990Z,7.14
2023-03-27T02:52:10.135Z,7.14
2023-03-27T02:54:42.035Z,7.17
2023-03-27T02:57:13.620Z,7.18
2023-03-27T03:00:03.619Z,7.15
2023-03-27T03:02:35.323Z,7.15
2023-03-27T03:05:08.824Z,7.13
2023-03-27T03:07:39.289Z,7.14
2023-03-27T03:10:09.911Z,7.09
2023-03-27T03:12:36.582Z,7.06
2023-03-27T03:15:03.678Z,7.04
2023-03-27T03:17:31.219Z,7.05
2023-03-27T03:19:57.909Z,7.02
2023-03-27T03:22:25.686Z,6.97
2023-03-27T03:24:53.067Z,6.95
2023-03-27T03:27:25.101Z,6.92
2023-03-27T03:30:05.518Z,6.89
2023-03-27T03:32:39.180Z,6.87
2023-03-27T03:35:06.910Z,6.85
2023-03-27T03:37:34.464Z,6.83
2023-03-27T03:40:01.166Z,6.82
2023-03-27T03:42:27.795Z,6.80
2023-03-27T03:44:54.445Z,6.81
2023-03-27T03:47:22.502Z,6.81
2023-03-27T03:49:49.742Z,6.81
2023-03-27T03:52:16.715Z,6.78
2023-03-27T03:54:44.964Z,6.78
2023-03-27T03:57:13.347Z,6.79
2023-03-27T03:59:40.378Z,6.71
2023-03-27T04:02:22.580Z,6.70
2023-03-27T04:04:49.384Z,6.67
2023-03-27T04:07:16.735Z,6.62
2023-03-27T04:09:46.129Z,6.56
2023-03-27T04:12:18.339Z,6.54
2023-03-27T04:14:55.896Z,6.47
2023-03-27T04:17:44.102Z,6.47
2023-03-27T04:20:12.766Z,6.44
2023-03-27T04:22:44.427Z,6.42
2023-03-27T04:25:11.158Z,6.41
2023-03-27T04:27:37.731Z,6.38
2023-03-27T04:30:14.748Z,6.33
2023-03-27T04:33:01.722Z,6.27
2023-03-27T04:36:06.341Z,6.23
2023-03-27T04:38:52.972Z,6.12
2023-03-27T04:41:19.770Z,6.10
2023-03-27T04:43:46.431Z,6.04
2023-03-27T04:46:13.365Z,6.03
2023-03-27T04:48:41.761Z,5.98
2023-03-27T04:51:31.168Z,5.96
2023-03-27T04:53:58.104Z,5.95
2023-03-27T04:56:25.740Z,5.93
2023-03-27T04:58:55.352Z,5.93
2023-03-27T05:01:22.411Z,5.92
2023-03-27T05:04:13.524Z,5.91
2023-03-27T05:06:54.841Z,5.85
2023-03-27T05:09:22.695Z,5.88
2023-03-27T05:11:50.424Z,5.87
2023-03-27T05:14:19.775Z,5.94
2023-03-27T05:16:47.034Z,5.97
2023-03-27T05:19:13.740Z,5.98
2023-03-27T05:21:44.318Z,6.06
2023-03-27T05:24:11.468Z,6.02
2023-03-27T05:26:39.252Z,6.06
2023-03-27T05:29:06.041Z,6.17
2023-03-27T05:31:36.232Z,6.31
2023-03-27T05:34:28.876Z,6.28
2023-03-27T05:37:02.651Z,6.29
2023-03-27T05:39:29.419Z,6.26
2023-03-27T05:41:56.130Z,6.33
2023-03-27T05:44:22.948Z,6.26
2023-03-27T05:46:50.536Z,6.21
2023-03-27T05:49:23.083Z,6.24
2023-03-27T05:51:55.556Z,6.39
2023-03-27T05:54:22.264Z,6.25
2023-03-27T05:57:12.164Z,6.37
2023-03-27T05:59:40.514Z,6.26
2023-03-27T06:02:33.564Z,6.18
2023-03-27T06:05:08.184Z,6.23
2023-03-27T06:07:37.709Z,6.15
2023-03-27T06:10:07.111Z,6.14
2023-03-27T06:12:45.505Z,6.33
2023-03-27T06:15:30.197Z,6.22
2023-03-27T06:18:17.160Z,6.11
2023-03-27T06:20:44.088Z,6.07
2023-03-27T06:23:11.442Z,6.15
2023-03-27T06:25:39.102Z,6.05
2023-03-27T06:28:07.616Z,5.97
2023-03-27T06:30:40.803Z,5.82
2023-03-27T06:33:26.724Z,5.85
2023-03-27T06:35:55.130Z,5.75
2023-03-27T06:38:30.480Z,5.78
2023-03-27T06:40:57.498Z,5.83
2023-03-27T06:43:24.843Z,5.84
2023-03-27T06:46:00.692Z,5.69
2023-03-27T06:48:45.536Z,5.54
2023-03-27T06:51:12.200Z,5.60
2023-03-27T06:53:39.057Z,5.57
2023-03-27T06:56:06.451Z,5.43
2023-03-27T06:58:53.232Z,5.35
2023-03-27T07:01:21.711Z,5.37
2023-03-27T07:04:02.161Z,5.34
2023-03-27T07:06:46.226Z,5.35
2023-03-27T07:09:12.967Z,5.28
2023-03-27T07:11:39.690Z,5.30
2023-03-27T07:14:09.074Z,5.23
2023-03-27T07:16:36.076Z,5.22
2023-03-27T07:19:02.927Z,5.12
2023-03-27T07:21:32.370Z,5.04
2023-03-27T07:23:59.814Z,5.01
2023-03-27T07:26:33.581Z,4.94
2023-03-27T07:29:21.521Z,4.90
2023-03-27T07:34:30.518Z,4.89
2023-03-27T07:37:15.730Z,4.95
2023-03-27T07:40:02.359Z,4.90
2023-03-27T07:42:29.249Z,4.80
2023-03-27T07:45:02.314Z,4.83
2023-03-27T07:47:30.736Z,4.84
2023-03-27T07:49:57.891Z,4.87
2023-03-27T07:52:25.196Z,4.86
2023-03-27T07:54:57.290Z,4.91
2023-03-27T07:57:31.657Z,4.89
2023-03-27T08:00:06.128Z,4.87
2023-03-27T08:03:13.247Z,4.87
2023-03-27T08:05:52.192Z,4.96
2023-03-27T08:08:19.748Z,4.99
2023-03-27T08:10:55.552Z,4.99
2023-03-27T08:13:23.656Z,4.98
2023-03-27T08:15:50.277Z,5.07
2023-03-27T08:18:24.990Z,5.00
2023-03-27T08:20:56.034Z,4.94
2023-03-27T08:23:24.732Z,5.03
2023-03-27T08:26:09.939Z,5.02
2023-03-27T08:28:44.616Z,4.95
2023-03-27T08:31:14.626Z,4.94
2023-03-27T08:33:42.916Z,4.88
2023-03-27T08:36:15.104Z,4.80
2023-03-27T08:38:43.486Z,4.83
2023-03-27T08:41:30.389Z,4.77
2023-03-27T08:44:14.241Z,4.84
2023-03-27T08:46:41.608Z,4.86
2023-03-27T08:49:15.696Z,4.83
2023-03-27T08:52:05.774Z,4.73
2023-03-27T08:54:34.872Z,4.58
2023-03-27T08:57:13.306Z,4.70
2023-03-27T08:59:39.884Z,4.57
2023-03-27T09:02:15.153Z,4.58
2023-03-27T09:05:02.999Z,4.47
2023-03-27T09:07:32.897Z,4.30
2023-03-27T09:10:26.177Z,4.25
2023-03-27T09:13:21.544Z,4.18
2023-03-27T09:16:00.562Z,4.17
2023-03-27T09:18:33.830Z,4.14
2023-03-27T09:21:17.891Z,4.14
2023-03-27T09:23:46.340Z,4.23
2023-03-27T09:26:36.672Z,4.31
2023-03-27T09:29:23.813Z,4.37
2023-03-27T09:32:02.625Z,4.30
2023-03-27T09:34:31.953Z,4.25
2023-03-27T09:37:00.192Z,4.22
2023-03-27T09:39:33.430Z,4.20
2023-03-27T09:42:20.079Z,4.14
2023-03-27T09:44:51.807Z,4.10
2023-03-27T09:47:37.386Z,4.10
2023-03-27T09:50:26.265Z,4.07
2023-03-27T09:53:12.178Z,4.11
2023-03-27T09:56:13.219Z,4.12
2023-03-27T09:58:47.092Z,4.20
2023-03-27T10:01:17.859Z,4.23
2023-03-27T10:03:52.339Z,4.25
2023-03-27T10:06:37.698Z,4.25
2023-03-27T10:09:29.261Z,4.23
2023-03-27T10:12:20.893Z,4.24
2023-03-27T10:14:52.581Z,4.28
2023-03-27T10:17:55.172Z,4.32
2023-03-27T10:20:22.054Z,4.38
2023-03-27T10:22:59.641Z,4.45
2023-03-27T10:25:33.806Z,4.51
2023-03-27T10:28:21.681Z,4.52
2023-03-27T10:31:23.835Z,4.60
2023-03-27T10:33:55.395Z,4.63
2023-03-27T10:36:48.641Z,4.71
2023-03-27T10:39:20.069Z,4.80
2023-03-27T10:42:09.331Z,4.86
2023-03-27T10:44:40.266Z,4.95
2023-03-27T10:47:18.476Z,4.96
2023-03-27T10:49:52.255Z,5.02
2023-03-27T10:52:54.759Z,5.15
2023-03-27T10:56:14.083Z,5.14
2023-03-27T10:58:50.377Z,5.17
2023-03-27T11:01:25.911Z,5.26
2023-03-27T11:03:57.771Z,5.30
2023-03-27T11:06:29.480Z,5.39
2023-03-27T11:09:17.526Z,5.32
2023-03-27T11:12:06.023Z,5.39
2023-03-27T11:14:47.543Z,5.40
2023-03-27T11:17:24.307Z,5.52
2023-03-27T11:20:27.827Z,5.60
2023-03-27T11:23:34.058Z,5.61
2023-03-27T11:26:21.656Z,5.74
2023-03-27T11:29:08.072Z,5.77
2023-03-27T11:31:46.945Z,5.67
2023-03-27T11:34:32.081Z,5.80
2023-03-27T11:37:26.319Z,5.90
2023-03-27T11:39:58.476Z,5.97
2023-03-27T11:42:36.058Z,6.02
2023-03-27T11:45:06.880Z,5.94
2023-03-27T11:48:03.737Z,6.04
2023-03-27T11:50:47.546Z,6.09
2023-03-27T11:53:30.982Z,6.13
2023-03-27T11:57:06.252Z,6.22
2023-03-27T12:00:00.959Z,6.31
2023-03-27T12:02:45.495Z,6.34
2023-03-27T12:05:22.969Z,6.39
2023-03-27T12:08:09.836Z,6.47
2023-03-27T12:10:41.036Z,6.72
2023-03-27T12:13:49.978Z,6.75
2023-03-27T12:16:47.890Z,6.79
2023-03-27T12:19:29.671Z,6.96
2023-03-27T12:22:36.526Z,7.03
2023-03-27T12:25:29.168Z,7.16
2023-03-27T12:28:34.854Z,7.13
2023-03-27T12:31:51.247Z,7.11
2023-03-27T12:34:30.858Z,6.71
2023-03-27T12:36:59.954Z,6.46
2023-03-27T12:39:28.332Z,6.16
2023-03-27T12:42:12.926Z,6.03
2023-03-27T12:45:05.350Z,5.80
2023-03-27T12:47:32.144Z,5.88
2023-03-27T12:50:18.597Z,5.79
2023-03-27T12:52:46.389Z,5.95
2023-03-27T12:55:17.877Z,6.02
2023-03-27T12:57:57.810Z,6.12
2023-03-27T13:00:53.703Z,6.26
2023-03-27T13:04:13.661Z,5.93
2023-03-27T13:06:54.533Z,5.75
2023-03-27T13:09:43.679Z,5.75
2023-03-27T13:12:22.582Z,5.65
2023-03-27T13:15:27.030Z,5.55
2023-03-27T13:18:10.388Z,5.45
2023-03-27T13:20:47.834Z,5.45
2023-03-27T13:23:30.448Z,5.48
2023-03-27T13:26:34.855Z,5.44
2023-03-27T13:29:03.136Z,5.39
2023-03-27T13:31:45.693Z,5.38
2023-03-27T13:34:27.674Z,5.32
2023-03-27T13:37:07.659Z,5.37
2023-03-27T13:39:47.307Z,5.44
2023-03-27T13:42:41.132Z,5.49
2023-03-27T13:45:17.735Z,5.38
2023-03-27T13:48:24.864Z,5.44
2023-03-27T13:50:54.949Z,5.48
2023-03-27T13:53:43.023Z,5.55
2023-03-27T13:57:10.741Z,5.63
2023-03-27T14:00:01.932Z,5.78
2023-03-27T14:03:09.856Z,5.88
2023-03-27T14:06:07.027Z,5.91
2023-03-27T14:09:03.002Z,5.98
2023-03-27T14:12:13.680Z,5.94
2023-03-27T14:15:12.776Z,6.01
2023-03-27T14:18:18.460Z,6.09
2023-03-27T14:20:47.894Z,6.14
2023-03-27T14:23:20.697Z,6.18
2023-03-27T14:26:05.836Z,6.18
2023-03-27T14:28:52.303Z,6.20
2023-03-27T14:31:30.040Z,6.24
2023-03-27T14:34:18.966Z,6.23
2023-03-27T14:36:47.019Z,6.23
2023-03-27T14:39:22.758Z,6.15
2023-03-27T14:42:00.518Z,6.10
2023-03-27T14:44:32.573Z,6.04
2023-03-27T14:47:07.880Z,5.97
2023-03-27T14:49:49.304Z,5.97
2023-03-27T14:52:30.381Z,5.97
2023-03-27T14:55:17.436Z,6.01
2023-03-27T14:57:50.062Z,6.20
2023-03-27T15:00:21.551Z,6.16
2023-03-27T15:02:51.026Z,6.12
2023-03-27T15:05:20.187Z,6.14
2023-03-27T15:07:51.735Z,6.02
2023-03-27T15:10:38.219Z,6.03
2023-03-27T15:13:34.477Z,5.87
2023-03-27T15:16:02.812Z,5.94
2023-03-27T15:18:48.573Z,6.04
2023-03-27T15:21:27.353Z,6.15
2023-03-27T15:24:02.111Z,6.36
2023-03-27T15:26:33.388Z,6.61
2023-03-27T15:29:06.171Z,6.84
2023-03-27T15:31:34.716Z,7.02
2023-03-27T15:34:12.585Z,7.13
2023-03-27T15:36:40.462Z,7.07
2023-03-27T15:39:07.108Z,6.98
2023-03-27T15:41:33.729Z,6.84
2023-03-27T15:44:12.112Z,6.64
2023-03-27T15:46:48.514Z,6.58
2023-03-27T15:49:37.155Z,6.46
2023-03-27T15:52:30.792Z,6.37
2023-03-27T15:54:58.456Z,6.36
2023-03-27T15:57:27.773Z,6.29
2023-03-27T15:59:55.423Z,6.26
2023-03-27T16:02:25.241Z,6.20
2023-03-27T16:04:55.828Z,6.16
2023-03-27T16:07:29.639Z,6.13
2023-03-27T16:10:01.654Z,6.22
2023-03-27T16:12:58.590Z,6.38
2023-03-27T16:15:38.623Z,6.49
2023-03-27T16:18:23.011Z,6.68
2023-03-27T16:20:49.819Z,6.82
2023-03-27T16:23:16.422Z,6.83
2023-03-27T16:25:43.155Z,6.85
2023-03-27T16:28:10.038Z,6.82
2023-03-27T16:30:39.270Z,6.76
2023-03-27T16:33:24.800Z,6.61
2023-03-27T16:35:51.450Z,6.54
2023-03-27T16:38:18.171Z,6.45
2023-03-27T16:40:45.439Z,6.36
2023-03-27T16:43:12.054Z,6.31
2023-03-27T16:45:38.895Z,6.22
2023-03-27T16:48:05.674Z,6.09
2023-03-27T16:50:33.186Z,6.02
2023-03-27T16:52:59.748Z,5.96
2023-03-27T16:55:26.345Z,5.89
2023-03-27T16:57:52.914Z,5.81
2023-03-27T17:00:20.057Z,5.73
2023-03-27T17:02:47.655Z,5.68
2023-03-27T17:05:14.757Z,5.62
2023-03-27T17:07:41.514Z,5.57
2023-03-27T17:10:08.898Z,5.52
2023-03-27T17:12:35.551Z,5.48
2023-03-27T17:15:02.330Z,5.41
2023-03-27T17:17:29.944Z,5.35
2023-03-27T17:19:56.662Z,5.30
2023-03-27T17:22:23.303Z,5.13
2023-03-27T17:24:57.016Z,5.02
2023-03-27T17:27:24.962Z,4.89
2023-03-27T17:29:53.267Z,4.77
2023-03-27T17:32:19.999Z,4.66
2023-03-27T17:34:46.639Z,4.57
2023-03-27T17:37:13.237Z,4.50
2023-03-27T17:39:39.910Z,4.40
2023-03-27T17:42:06.498Z,4.33
2023-03-27T17:44:33.197Z,4.29
2023-03-27T17:46:59.774Z,4.25
2023-03-27T17:49:26.532Z,4.19
2023-03-27T17:51:53.098Z,4.14
2023-03-27T17:54:19.910Z,4.10
2023-03-27T17:56:46.589Z,4.07
2023-03-27T17:59:13.174Z,4.03
2023-03-27T18:01:39.777Z,4.00
2023-03-27T18:04:06.981Z,4.00
2023-03-27T18:06:33.630Z,3.98
2023-03-27T18:09:00.225Z,3.98
2023-03-27T18:11:26.763Z,3.98
2023-03-27T18:13:53.639Z,3.97
2023-03-27T18:16:20.688Z,3.96
2023-03-27T18:18:47.400Z,3.84
2023-03-27T18:21:16.111Z,3.85
2023-03-27T18:23:46.037Z,3.81
2023-03-27T18:26:14.504Z,3.82
2023-03-27T18:28:41.082Z,3.78
2023-03-27T18:31:09.976Z,3.77
2023-03-27T18:33:36.734Z,3.77
2023-03-27T18:36:04.875Z,3.74
2023-03-27T18:38:31.371Z,3.66
2023-03-27T18:40:58.132Z,3.73
2023-03-27T18:43:25.134Z,3.72
2023-03-27T18:45:56.461Z,3.71
2023-03-27T18:48:23.612Z,3.70
2023-03-27T18:50:58.966Z,3.69
2023-03-27T18:53:26.122Z,3.70
2023-03-27T18:55:53.680Z,3.70
2023-03-27T18:58:23.651Z,3.70
2023-03-27T19:00:50.737Z,3.71
2023-03-27T19:03:20.330Z,3.69
2023-03-27T19:05:47.982Z,3.68
2023-03-27T19:08:15.575Z,3.67
2023-03-27T19:10:42.178Z,3.66
2023-03-27T19:13:17.505Z,3.61
2023-03-27T19:16:19.723Z,3.59
2023-03-27T19:18:55.383Z,3.60
2023-03-27T19:21:48.743Z,3.57
2023-03-27T19:24:21.168Z,3.56
2023-03-27T19:26:47.791Z,3.53
2023-03-27T19:29:14.466Z,3.56
2023-03-27T19:31:41.104Z,3.52
2023-03-27T19:34:07.886Z,3.53
2023-03-27T19:36:34.541Z,3.54
2023-03-27T19:39:01.208Z,3.54
2023-03-27T19:41:27.922Z,3.54
2023-03-27T19:43:54.498Z,3.56
2023-03-27T19:46:21.169Z,3.55
2023-03-27T19:48:51.681Z,3.53
2023-03-27T19:51:27.459Z,3.56
2023-03-27T19:53:54.328Z,3.56
2023-03-27T19:56:24.391Z,3.55
2023-03-27T19:58:51.129Z,3.55
2023-03-27T20:01:18.004Z,3.53
2023-03-27T20:03:44.852Z,3.51
2023-03-27T20:06:14.346Z,3.48
2023-03-27T20:08:42.463Z,3.44
2023-03-27T20:11:12.999Z,3.39
2023-03-27T20:13:52.986Z,3.35
2023-03-27T20:16:23.883Z,3.31
2023-03-27T20:18:50.432Z,3.22
2023-03-27T20:21:17.093Z,3.23
2023-03-27T20:23:43.893Z,3.20
2023-03-27T20:26:21.815Z,3.15
2023-03-27T20:28:53.999Z,3.13
2023-03-27T20:31:20.689Z,3.09
2023-03-27T20:33:47.869Z,3.04
2023-03-27T20:36:14.833Z,3.01
2023-03-27T20:38:41.805Z,2.99
2023-03-27T20:41:08.395Z,2.99
2023-03-27T20:43:34.973Z,2.96
2023-03-27T20:46:03.537Z,2.91
2023-03-27T20:48:30.363Z,2.88
2023-03-27T20:50:56.920Z,2.85
2023-03-27T20:53:27.726Z,2.81
2023-03-27T20:56:02.977Z,2.78
2023-03-27T20:58:32.988Z,2.71
2023-03-27T21:00:59.795Z,2.72
2023-03-27T21:03:26.435Z,2.72
2023-03-27T21:05:53.069Z,2.69
2023-03-27T21:08:19.659Z,2.67
2023-03-27T21:10:54.637Z,2.64
2023-03-27T21:13:21.342Z,2.65
2023-03-27T21:15:48.216Z,2.61
2023-03-27T21:18:16.974Z,2.58
2023-03-27T21:20:43.561Z,2.57
2023-03-27T21:23:10.214Z,2.56
2023-03-27T21:25:36.849Z,2.51
2023-03-27T21:28:06.106Z,2.52
2023-03-27T21:30:46.822Z,2.48
2023-03-27T21:33:15.205Z,2.45
2023-03-27T21:35:41.922Z,2.46
2023-03-27T21:38:08.838Z,2.43
2023-03-27T21:40:38.209Z,2.40
2023-03-27T21:43:04.987Z,2.38
2023-03-27T21:45:31.693Z,2.37
2023-03-27T21:47:58.357Z,2.35
2023-03-27T21:50:25.267Z,2.33
2023-03-27T21:52:51.974Z,2.31
2023-03-27T21:55:18.604Z,2.31
2023-03-27T21:57:45.264Z,2.28
2023-03-27T22:00:12.410Z,2.28
2023-03-27T22:02:42.075Z,2.27
2023-03-27T22:05:09.043Z,2.26
2023-03-27T22:07:35.727Z,2.23
2023-03-27T22:10:02.415Z,2.24
2023-03-27T22:12:28.988Z,2.23
2023-03-27T22:14:55.529Z,2.21
2023-03-27T22:17:22.193Z,2.22
2023-03-27T22:19:48.831Z,2.20
2023-03-27T22:22:15.503Z,2.18
2023-03-27T22:24:42.155Z,2.20
2023-03-27T22:27:08.743Z,2.17
2023-03-27T22:29:35.474Z,2.19
2023-03-27T22:32:02.190Z,2.21
2023-03-27T22:34:28.779Z,2.22
2023-03-27T22:36:55.457Z,2.22
2023-03-27T22:39:22.007Z,2.20
2023-03-27T22:41:48.657Z,2.19
2023-03-27T22:44:15.368Z,2.20
2023-03-27T22:46:42.118Z,2.19
2023-03-27T22:49:08.841Z,2.22
2023-03-27T22:51:35.476Z,2.24
2023-03-27T22:54:02.412Z,2.26
2023-03-27T22:56:29.113Z,2.25
2023-03-27T22:58:55.752Z,2.30
2023-03-27T23:01:22.326Z,2.31
2023-03-27T23:03:49.055Z,2.33
2023-03-27T23:06:21.876Z,2.34
2023-03-27T23:08:51.960Z,2.35
2023-03-27T23:11:19.384Z,2.36
2023-03-27T23:13:46.344Z,2.39
2023-03-27T23:16:13.070Z,2.42
2023-03-27T23:18:39.934Z,2.47
2023-03-27T23:21:11.865Z,2.49
2023-03-27T23:23:39.842Z,2.52
2023-03-27T23:26:07.649Z,2.56
2023-03-27T23:28:38.377Z,2.58
2023-03-27T23:31:08.247Z,2.64
2023-03-27T23:33:37.641Z,2.67
2023-03-27T23:36:08.338Z,2.72
2023-03-27T23:38:35.309Z,2.76
2023-03-27T23:41:02.434Z,2.80
2023-03-27T23:43:30.287Z,2.82
2023-03-27T23:45:57.723Z,2.72
2023-03-27T23:48:25.521Z,2.84
2023-03-27T23:50:52.472Z,2.87
2023-03-27T23:53:23.028Z,2.89
2023-03-27T23:55:49.656Z,2.90
2023-03-27T23:58:16.353Z,2.87
